createdAt,value
2022-12-05T00:01:18.322Z,95624.34
2022-12-05T00:03:48.196Z,95614.84
2022-12-05T00:06:16.403Z,95592.81
2022-12-05T00:08:44.781Z,95586.28
2022-12-05T00:11:14.089Z,95626.63
2022-12-05T00:13:42.848Z,95630.03
2022-12-05T00:16:12.669Z,95625.84
2022-12-05T00:18:40.647Z,95629.56
2022-12-05T00:21:14.777Z,95617.03
2022-12-05T00:23:42.855Z,95626.19
2022-12-05T00:26:11.182Z,95628.91
2022-12-05T00:28:39.467Z,95635.56
2022-12-05T00:31:09.036Z,95631.28
2022-12-05T00:33:37.478Z,95636.72
2022-12-05T00:36:06.894Z,95648.09
2022-12-05T00:38:36.020Z,95641.00
2022-12-05T00:41:04.836Z,95648.56
2022-12-05T00:43:32.545Z,95641.53
2022-12-05T00:46:02.585Z,95648.56
2022-12-05T00:48:30.602Z,95648.09
2022-12-05T00:51:02.934Z,95652.16
2022-12-05T00:53:30.740Z,95664.13
2022-12-05T00:56:03.865Z,95660.88
2022-12-05T00:58:32.130Z,95651.59
2022-12-05T01:01:06.734Z,95645.13
2022-12-05T01:03:34.716Z,95650.03
2022-12-05T01:06:02.760Z,95653.66
2022-12-05T01:08:30.416Z,95657.63
2022-12-05T01:11:02.043Z,95667.91
2022-12-05T01:13:30.311Z,95673.44
2022-12-05T01:15:58.814Z,95668.47
2022-12-05T01:18:27.619Z,95683.59
2022-12-05T01:20:56.089Z,95696.28
2022-12-05T01:23:24.497Z,95706.13
2022-12-05T01:25:53.658Z,95718.63
2022-12-05T01:28:22.959Z,95714.69
2022-12-05T01:30:51.648Z,95714.69
2022-12-05T01:33:19.559Z,95713.22
2022-12-05T01:35:47.379Z,95700.22
2022-12-05T01:38:15.209Z,95697.72
2022-12-05T01:40:43.019Z,95698.19
2022-12-05T01:43:16.043Z,95696.38
2022-12-05T01:45:47.156Z,95695.25
2022-12-05T01:48:20.085Z,95703.97
2022-12-05T01:50:49.863Z,95710.63
2022-12-05T01:53:18.570Z,95722.38
2022-12-05T01:55:48.999Z,95718.09
2022-12-05T01:58:17.376Z,95724.09
2022-12-05T02:00:46.457Z,95728.94
2022-12-05T02:03:20.277Z,95749.09
2022-12-05T02:05:51.123Z,95741.38
2022-12-05T02:08:18.962Z,95746.03
2022-12-05T02:10:50.789Z,95760.16
2022-12-05T02:13:35.556Z,95778.25
2022-12-05T02:16:13.050Z,95768.88
2022-12-05T02:18:54.176Z,95760.94
2022-12-05T02:21:44.963Z,95773.84
2022-12-05T02:24:39.980Z,95754.28
2022-12-05T02:27:37.550Z,95763.66
2022-12-05T02:30:12.982Z,95781.31
2022-12-05T02:33:05.389Z,95794.09
2022-12-05T02:35:41.942Z,95783.78
2022-12-05T02:38:26.109Z,95784.91
2022-12-05T02:41:05.162Z,95786.16
2022-12-05T02:43:39.469Z,95784.13
2022-12-05T02:46:12.475Z,95774.97
2022-12-05T02:48:43.530Z,95778.91
2022-12-05T02:51:15.316Z,95789.09
2022-12-05T02:53:45.369Z,95798.25
2022-12-05T02:56:13.842Z,95806.28
2022-12-05T02:58:48.115Z,95805.25
2022-12-05T03:01:17.380Z,95807.06
2022-12-05T03:03:45.276Z,95806.84
2022-12-05T03:06:15.471Z,95811.47
2022-12-05T03:08:48.435Z,95809.75
2022-12-05T03:11:16.559Z,95814.09
2022-12-05T03:13:48.745Z,95815.78
2022-12-05T03:16:22.098Z,95817.72
2022-12-05T03:18:55.488Z,95817.78
2022-12-05T03:21:31.515Z,95825.97
2022-12-05T03:24:03.794Z,95840.19
2022-12-05T03:26:38.992Z,95812.72
2022-12-05T03:29:21.294Z,95826.28
2022-12-05T03:32:01.225Z,95813.63
2022-12-05T03:34:38.470Z,95841.78
2022-12-05T03:37:14.571Z,95843.81
2022-12-05T03:39:49.251Z,95837.50
2022-12-05T03:42:20.199Z,95843.72
2022-12-05T03:44:53.585Z,95832.84
2022-12-05T03:47:30.438Z,95854.81
2022-12-05T03:50:03.416Z,95863.84
2022-12-05T03:52:51.054Z,95875.38
2022-12-05T03:55:26.593Z,95877.75
2022-12-05T03:57:59.224Z,95850.25
2022-12-05T04:00:31.185Z,95878.78
2022-12-05T04:03:07.326Z,95883.53
2022-12-05T04:05:41.377Z,95876.41
2022-12-05T04:08:13.831Z,95871.66
2022-12-05T04:10:49.434Z,95874.50
2022-12-05T04:13:21.043Z,95880.38
2022-12-05T04:16:13.413Z,95876.75
2022-12-05T04:18:50.862Z,95872.56
2022-12-05T04:21:38.407Z,95886.81
2022-12-05T04:24:26.864Z,95883.88
2022-12-05T04:27:05.116Z,95894.41
2022-12-05T04:29:38.810Z,95886.84
2022-12-05T04:32:12.003Z,95889.75
2022-12-05T04:34:46.132Z,95890.34
2022-12-05T04:37:19.535Z,95894.84
2022-12-05T04:39:51.254Z,95866.81
2022-12-05T04:42:22.150Z,95882.56
2022-12-05T04:44:53.797Z,95893.53
2022-12-05T04:47:25.505Z,95883.53
2022-12-05T04:49:56.058Z,95876.75
2022-12-05T04:52:24.446Z,95884.91
2022-12-05T04:54:57.541Z,95889.75
2022-12-05T04:57:31.085Z,95870.88
2022-12-05T04:59:58.912Z,95873.94
2022-12-05T05:02:33.186Z,95872.47
2022-12-05T05:05:06.339Z,95863.41
2022-12-05T05:07:44.583Z,95868.16
2022-12-05T05:10:16.089Z,95851.75
2022-12-05T05:12:43.800Z,95853.94
2022-12-05T05:15:11.921Z,95867.75
2022-12-05T05:17:39.670Z,95868.97
2022-12-05T05:20:24.901Z,95846.34
2022-12-05T05:22:53.939Z,95864.78
2022-12-05T05:25:22.114Z,95876.88
2022-12-05T05:27:52.065Z,95875.19
2022-12-05T05:30:20.755Z,95870.78
2022-12-05T05:32:48.604Z,95877.66
2022-12-05T05:35:18.028Z,95878.47
2022-12-05T05:37:45.928Z,95851.19
2022-12-05T05:40:14.785Z,95881.63
2022-12-05T05:42:46.525Z,95890.81
2022-12-05T05:45:15.810Z,95865.00
2022-12-05T05:47:44.095Z,95881.06
2022-12-05T05:50:17.923Z,95878.00
2022-12-05T05:52:50.465Z,95882.09
2022-12-05T05:55:18.377Z,95893.41
2022-12-05T05:57:46.280Z,95890.34
2022-12-05T06:00:15.684Z,95883.66
2022-12-05T06:02:43.518Z,95893.41
2022-12-05T06:05:11.490Z,95901.69
2022-12-05T06:07:39.331Z,95908.34
2022-12-05T06:10:09.808Z,95908.00
2022-12-05T06:12:37.492Z,95894.44
2022-12-05T06:15:05.995Z,95921.56
2022-12-05T06:17:33.649Z,95910.97
2022-12-05T06:20:01.519Z,95929.84
2022-12-05T06:22:30.719Z,95932.44
2022-12-05T06:24:59.690Z,95931.66
2022-12-05T06:27:30.728Z,95934.28
2022-12-05T06:29:58.822Z,95939.69
2022-12-05T06:32:28.766Z,95939.94
2022-12-05T06:34:56.535Z,95936.53
2022-12-05T06:37:24.201Z,95941.41
2022-12-05T06:39:52.360Z,95922.94
2022-12-05T06:42:22.128Z,95934.59
2022-12-05T06:44:51.165Z,95942.06
2022-12-05T06:47:18.792Z,95940.94
2022-12-05T06:49:46.480Z,95943.44
2022-12-05T06:52:14.175Z,95896.56
2022-12-05T06:54:41.874Z,95947.63
2022-12-05T06:57:09.646Z,95965.19
2022-12-05T06:59:37.337Z,95954.41
2022-12-05T07:02:08.084Z,95973.56
2022-12-05T07:04:36.039Z,95968.91
2022-12-05T07:07:03.701Z,95975.03
2022-12-05T07:09:45.433Z,95979.44
2022-12-05T07:12:14.269Z,95965.97
2022-12-05T07:14:50.069Z,95949.88
2022-12-05T07:17:20.490Z,95978.56
2022-12-05T07:19:49.346Z,95977.41
2022-12-05T07:22:17.378Z,95979.22
2022-12-05T07:24:45.586Z,95958.41
2022-12-05T07:27:13.804Z,95977.06
2022-12-05T07:29:41.543Z,95983.41
2022-12-05T07:32:09.461Z,95987.16
2022-12-05T07:34:39.434Z,95987.16
2022-12-05T07:37:07.185Z,95992.78
2022-12-05T07:39:34.992Z,95989.09
2022-12-05T07:42:02.651Z,95984.31
2022-12-05T07:44:31.163Z,95991.81
2022-12-05T07:46:59.412Z,95990.31
2022-12-05T07:49:27.347Z,95994.63
2022-12-05T07:51:56.353Z,95992.59
2022-12-05T07:54:24.275Z,95997.31
2022-12-05T07:56:52.007Z,96001.41
2022-12-05T07:59:19.934Z,96014.00
2022-12-05T08:01:47.765Z,96009.69
2022-12-05T08:04:16.098Z,96007.19
2022-12-05T08:06:44.167Z,96006.16
2022-12-05T08:09:13.377Z,96017.28
2022-12-05T08:11:41.111Z,96023.63
2022-12-05T08:14:08.870Z,96008.78
2022-12-05T08:16:36.722Z,96010.59
2022-12-05T08:19:07.338Z,95980.78
2022-12-05T08:21:35.733Z,96009.34
2022-12-05T08:24:05.712Z,96015.94
2022-12-05T08:26:36.383Z,96022.13
2022-12-05T08:29:06.917Z,96023.75
2022-12-05T08:31:37.645Z,96025.75
2022-12-05T08:34:05.729Z,96039.13
2022-12-05T08:36:33.597Z,96040.50
2022-12-05T08:39:03.165Z,96050.47
2022-12-05T08:41:31.055Z,96045.72
2022-12-05T08:44:03.014Z,96043.56
2022-12-05T08:46:31.063Z,96057.16
2022-12-05T08:48:58.846Z,96040.50
2022-12-05T08:51:26.709Z,96045.72
2022-12-05T08:53:56.217Z,96042.97
2022-12-05T08:56:27.211Z,96056.25
2022-12-05T08:59:01.281Z,96047.19
2022-12-05T09:01:33.235Z,96056.47
2022-12-05T09:04:01.598Z,96055.22
2022-12-05T09:06:30.220Z,96056.91
2022-12-05T09:08:59.598Z,96066.22
2022-12-05T09:11:29.865Z,96065.41
2022-12-05T09:13:59.248Z,96060.53
2022-12-05T09:16:35.255Z,96041.63
2022-12-05T09:19:13.204Z,96076.06
2022-12-05T09:21:41.477Z,96075.28
2022-12-05T09:24:10.811Z,96065.75
2022-12-05T09:26:40.858Z,96069.16
2022-12-05T09:29:15.727Z,96074.38
2022-12-05T09:31:45.497Z,96074.38
2022-12-05T09:34:15.207Z,96071.75
2022-12-05T09:36:43.372Z,96083.22
2022-12-05T09:39:12.187Z,96088.97
2022-12-05T09:42:13.195Z,96099.97
2022-12-05T09:44:45.217Z,96092.72
2022-12-05T09:47:21.753Z,96089.31
2022-12-05T09:49:56.180Z,96081.47
2022-12-05T09:52:28.757Z,96094.97
2022-12-05T09:54:58.312Z,96095.66
2022-12-05T09:57:35.080Z,96082.84
2022-12-05T10:00:05.936Z,96086.34
2022-12-05T10:02:43.091Z,96090.00
2022-12-05T10:05:18.640Z,96093.63
2022-12-05T10:07:54.910Z,96088.88
2022-12-05T10:10:30.642Z,96095.88
2022-12-05T10:13:10.066Z,96098.16
2022-12-05T10:15:45.580Z,96093.38
2022-12-05T10:18:28.352Z,96091.31
2022-12-05T10:21:02.797Z,96084.53
2022-12-05T10:26:21.854Z,96081.44
2022-12-05T10:28:56.998Z,96074.72
2022-12-05T10:31:31.621Z,96080.63
2022-12-05T10:34:05.301Z,96077.47
2022-12-05T10:36:36.303Z,96072.25
2022-12-05T10:39:09.920Z,96073.03
2022-12-05T10:41:39.361Z,96080.97
2022-12-05T10:44:07.379Z,96056.13
2022-12-05T10:46:35.225Z,96083.66
2022-12-05T10:49:03.575Z,96080.28
2022-12-05T10:51:37.240Z,96075.34
2022-12-05T10:54:17.979Z,96077.25
2022-12-05T10:56:47.602Z,96068.06
2022-12-05T10:59:17.617Z,96068.63
2022-12-05T11:01:49.328Z,96065.19
2022-12-05T11:04:24.631Z,96065.09
2022-12-05T11:06:55.176Z,96065.25
2022-12-05T11:09:26.690Z,96046.22
2022-12-05T11:12:18.756Z,96067.13
2022-12-05T11:15:06.760Z,96066.47
2022-12-05T11:17:36.563Z,96060.78
2022-12-05T11:20:25.616Z,96062.91
2022-12-05T11:22:56.224Z,96061.16
2022-12-05T11:25:30.527Z,96070.66
2022-12-05T11:28:01.660Z,96056.88
2022-12-05T11:30:30.966Z,96050.88
2022-12-05T11:33:12.623Z,96055.63
2022-12-05T11:35:41.210Z,96057.50
2022-12-05T11:38:12.473Z,96050.88
2022-12-05T11:40:49.156Z,96061.16
2022-12-05T11:43:39.424Z,96056.09
2022-12-05T11:46:15.182Z,96052.88
2022-12-05T11:49:01.272Z,96054.69
2022-12-05T11:51:39.522Z,96044.88
2022-12-05T11:57:34.805Z,96048.03
2022-12-05T12:00:20.610Z,96043.28
2022-12-05T12:03:19.900Z,96049.69
2022-12-05T12:06:02.553Z,96062.28
2022-12-05T12:08:32.180Z,96057.69
2022-12-05T12:11:11.948Z,96060.16
2022-12-05T12:14:02.288Z,96062.53
2022-12-05T12:16:43.794Z,96052.94
2022-12-05T12:19:40.614Z,96061.66
2022-12-05T12:22:24.938Z,96057.63
2022-12-05T12:25:06.551Z,96058.09
2022-12-05T12:27:51.685Z,96051.13
2022-12-05T12:30:23.398Z,96047.19
2022-12-05T12:32:59.675Z,96046.16
2022-12-05T12:35:32.276Z,96049.31
2022-12-05T12:38:23.463Z,96029.66
2022-12-05T12:40:54.119Z,96046.59
2022-12-05T12:46:40.846Z,96042.41
2022-12-05T12:49:37.068Z,96028.78
2022-12-05T12:52:12.964Z,96016.53
2022-12-05T12:55:03.983Z,96041.25
2022-12-05T12:57:44.561Z,96042.34
2022-12-05T13:00:23.063Z,96032.91
2022-12-05T13:02:57.738Z,96047.63
2022-12-05T13:05:34.126Z,96037.97
2022-12-05T13:08:07.914Z,96045.13
2022-12-05T13:10:40.631Z,96040.91
2022-12-05T13:13:12.033Z,96042.81
2022-12-05T13:15:44.629Z,96043.38
2022-12-05T13:18:17.588Z,96039.56
2022-12-05T13:20:47.609Z,96038.53
2022-12-05T13:23:19.187Z,96042.50
2022-12-05T13:25:48.881Z,96043.91
2022-12-05T13:28:27.620Z,96032.28
2022-12-05T13:31:01.479Z,96008.47
2022-12-05T13:33:34.706Z,96037.91
2022-12-05T13:36:29.292Z,96035.53
2022-12-05T13:39:17.097Z,96027.63
2022-12-05T13:42:04.508Z,96037.19
2022-12-05T13:44:37.715Z,96047.41
2022-12-05T13:47:10.107Z,96053.31
2022-12-05T13:49:46.098Z,96031.47
2022-12-05T13:52:16.907Z,96037.06
2022-12-05T13:54:48.661Z,96047.31
2022-12-05T13:57:45.986Z,96044.72
2022-12-05T14:00:29.963Z,96046.06
2022-12-05T14:03:04.836Z,96050.00
2022-12-05T14:05:43.990Z,96048.56
2022-12-05T14:09:02.635Z,96056.09
2022-12-05T14:11:30.407Z,96056.22
2022-12-05T14:14:04.057Z,96061.31
2022-12-05T14:16:45.472Z,96061.88
2022-12-05T14:19:34.680Z,96049.84
2022-12-05T14:22:23.693Z,96045.03
2022-12-05T14:24:58.050Z,96048.03
2022-12-05T14:27:41.305Z,96057.38
2022-12-05T14:30:22.505Z,96059.28
2022-12-05T14:32:53.573Z,96063.69
2022-12-05T14:35:31.060Z,96065.44
2022-12-05T14:38:03.633Z,96061.44
2022-12-05T14:40:33.996Z,96069.28
2022-12-05T14:43:04.390Z,96067.63
2022-12-05T14:45:36.167Z,96076.50
2022-12-05T14:48:06.483Z,96080.47
2022-12-05T14:50:41.285Z,96082.44
2022-12-05T14:53:23.391Z,96086.47
2022-12-05T14:55:55.232Z,96088.03
2022-12-05T14:58:32.442Z,96084.66
2022-12-05T15:01:02.695Z,96069.34
2022-12-05T15:03:33.734Z,96072.53
2022-12-05T15:06:04.814Z,96067.13
2022-12-05T15:08:43.224Z,96063.44
2022-12-05T15:11:28.041Z,96057.41
2022-12-05T15:13:59.763Z,96051.00
2022-12-05T15:16:30.013Z,96037.22
2022-12-05T15:19:02.775Z,96054.69
2022-12-05T15:21:36.568Z,96060.31
2022-12-05T15:24:12.617Z,96053.31
2022-12-05T15:26:47.704Z,96062.47
2022-12-05T15:29:18.336Z,96066.00
2022-12-05T15:31:48.182Z,96065.44
2022-12-05T15:34:20.870Z,96072.03
2022-12-05T15:36:52.964Z,96069.09
2022-12-05T15:39:28.442Z,96075.69
2022-12-05T15:41:57.578Z,96077.28
2022-12-05T15:44:34.425Z,96077.53
2022-12-05T15:47:08.115Z,96086.69
2022-12-05T15:49:36.175Z,96084.34
2022-12-05T15:52:20.073Z,96071.78
2022-12-05T15:54:49.509Z,96075.59
2022-12-05T15:57:22.485Z,96088.66
2022-12-05T15:59:56.882Z,96097.19
2022-12-05T16:02:30.292Z,96096.50
2022-12-05T16:05:00.344Z,96092.03
2022-12-05T16:07:32.160Z,96097.59
2022-12-05T16:10:02.877Z,96096.63
2022-12-05T16:12:36.485Z,96093.44
2022-12-05T16:15:09.355Z,96100.59
2022-12-05T16:17:43.195Z,96100.69
2022-12-05T16:20:12.791Z,96105.66
2022-12-05T16:22:45.203Z,96079.94
2022-12-05T16:25:17.610Z,96096.16
2022-12-05T16:27:57.745Z,96091.72
2022-12-05T16:30:26.297Z,96088.09
2022-12-05T16:33:01.795Z,96091.03
2022-12-05T16:35:32.731Z,96100.44
2022-12-05T16:38:11.824Z,96097.59
2022-12-05T16:40:43.337Z,96099.31
2022-12-05T16:43:21.359Z,96063.19
2022-12-05T16:45:50.602Z,96083.44
2022-12-05T16:48:21.941Z,96090.13
2022-12-05T16:50:51.093Z,96095.25
2022-12-05T16:53:22.303Z,96095.47
2022-12-05T16:55:51.438Z,96097.31
2022-12-05T16:58:24.085Z,96092.44
2022-12-05T17:00:51.819Z,96087.66
2022-12-05T17:03:33.990Z,96087.34
2022-12-05T17:06:02.853Z,96087.34
2022-12-05T17:08:30.607Z,96088.81
2022-12-05T17:11:01.769Z,96102.28
2022-12-05T17:13:30.222Z,96104.53
2022-12-05T17:15:57.970Z,96116.69
2022-12-05T17:18:31.207Z,96078.63
2022-12-05T17:21:02.382Z,96118.75
2022-12-05T17:23:32.382Z,96122.38
2022-12-05T17:26:01.576Z,96130.84
2022-12-05T17:28:29.294Z,96129.94
2022-12-05T17:30:57.200Z,96121.00
2022-12-05T17:33:26.320Z,96122.75
2022-12-05T17:35:54.168Z,96130.50
2022-12-05T17:38:21.997Z,96132.44
2022-12-05T17:40:49.750Z,96126.31
2022-12-05T17:43:24.503Z,96120.66
2022-12-05T17:45:54.496Z,96121.91
2022-12-05T17:48:22.308Z,96113.16
2022-12-05T17:50:50.547Z,96114.06
2022-12-05T17:53:20.690Z,96122.72
2022-12-05T17:55:49.024Z,96122.38
2022-12-05T17:58:18.761Z,96130.34
2022-12-05T18:00:47.644Z,96125.56
2022-12-05T18:03:17.437Z,96136.00
2022-12-05T18:05:46.402Z,96133.41
2022-12-05T18:08:15.962Z,96125.25
2022-12-05T18:10:44.935Z,96133.84
2022-12-05T18:13:13.457Z,96138.75
2022-12-05T18:15:43.505Z,96129.44
2022-12-05T18:18:15.730Z,96136.69
2022-12-05T18:20:43.954Z,96119.69
2022-12-05T18:23:11.793Z,96133.19
2022-12-05T18:25:41.552Z,96131.25
2022-12-05T18:28:09.306Z,96129.22
2022-12-05T18:30:37.063Z,96122.53
2022-12-05T18:33:06.133Z,96125.69
2022-12-05T18:35:42.875Z,96125.69
2022-12-05T18:38:12.104Z,96121.50
2022-12-05T18:40:40.069Z,96116.03
2022-12-05T18:43:07.745Z,96109.16
2022-12-05T18:45:35.562Z,96108.81
2022-12-05T18:48:37.637Z,96110.59
2022-12-05T18:50:52.813Z,96098.50
2022-12-05T18:53:20.544Z,96107.56
2022-12-05T18:58:36.267Z,96114.81
2022-12-05T19:01:09.156Z,96119.03
2022-12-05T19:03:38.125Z,96115.03
2022-12-05T19:06:13.820Z,96128.31
2022-12-05T19:08:42.695Z,96128.66
2022-12-05T19:11:10.470Z,96125.38
2022-12-05T19:13:38.279Z,96135.00
2022-12-05T19:16:08.190Z,96137.50
2022-12-05T19:18:35.993Z,96145.56
2022-12-05T19:21:04.313Z,96145.22
2022-12-05T19:23:35.114Z,96150.44
2022-12-05T19:26:03.963Z,96145.22
2022-12-05T19:28:33.546Z,96138.63
2022-12-05T19:31:03.174Z,96139.09
2022-12-05T19:33:32.360Z,96147.13
2022-12-05T19:36:03.852Z,96141.56
2022-12-05T19:38:34.493Z,96139.75
2022-12-05T19:41:02.830Z,96144.06
2022-12-05T19:43:31.131Z,96141.78
2022-12-05T19:45:59.392Z,96142.69
2022-12-05T19:48:27.322Z,96140.47
2022-12-05T19:50:56.547Z,96140.53
2022-12-05T19:53:24.816Z,96141.09
2022-12-05T19:56:01.272Z,96148.47
2022-12-05T19:58:30.053Z,96148.91
2022-12-05T20:00:58.113Z,96139.97
2022-12-05T20:03:25.948Z,96133.59
2022-12-05T20:05:58.420Z,96137.00
2022-12-05T20:08:26.306Z,96131.47
2022-12-05T20:10:55.393Z,96143.34
2022-12-05T20:13:45.938Z,96139.38
2022-12-05T20:16:13.226Z,96137.06
2022-12-05T20:18:41.926Z,96141.50
2022-12-05T20:21:12.382Z,96127.38
2022-12-05T20:23:40.254Z,96129.75
2022-12-05T20:26:11.200Z,96121.81
2022-12-05T20:28:39.835Z,96117.81
2022-12-05T20:31:09.462Z,96118.72
2022-12-05T20:33:37.927Z,96122.22
2022-12-05T20:36:07.416Z,96126.84
2022-12-05T20:38:35.385Z,96119.63
2022-12-05T20:41:05.663Z,96115.00
2022-12-05T20:43:35.622Z,96118.28
2022-12-05T20:46:08.349Z,96108.75
2022-12-05T20:48:36.224Z,96100.03
2022-12-05T20:51:08.415Z,96101.16
2022-12-05T20:53:36.951Z,96108.50
2022-12-05T20:56:06.138Z,96108.72
2022-12-05T20:58:35.810Z,96119.13
2022-12-05T21:01:06.961Z,96105.06
2022-12-05T21:03:35.108Z,96112.66
2022-12-05T21:06:08.515Z,96104.50
2022-12-05T21:08:36.298Z,96100.53
2022-12-05T21:11:04.293Z,96093.50
2022-12-05T21:13:32.615Z,96084.59
2022-12-05T21:16:05.012Z,96103.00
2022-12-05T21:18:33.141Z,96101.19
2022-12-05T21:21:03.085Z,96118.38
2022-12-05T21:23:31.538Z,96117.72
2022-12-05T21:26:03.298Z,96116.84
2022-12-05T21:28:34.377Z,96110.53
2022-12-05T21:31:09.846Z,96112.25
2022-12-05T21:33:37.986Z,96113.00
2022-12-05T21:36:07.572Z,96107.75
2022-12-05T21:38:36.041Z,96115.09
2022-12-05T21:41:04.832Z,96116.94
2022-12-05T21:43:33.895Z,96121.59
2022-12-05T21:46:01.781Z,96092.41
2022-12-05T21:48:31.231Z,96117.25
2022-12-05T21:51:02.625Z,96124.56
2022-12-05T21:53:30.353Z,96111.16
2022-12-05T21:56:01.685Z,96130.22
2022-12-05T21:58:29.659Z,96127.81
2022-12-05T22:00:57.585Z,96130.50
2022-12-05T22:03:25.332Z,96115.63
2022-12-05T22:06:02.365Z,96114.84
2022-12-05T22:08:32.409Z,96109.84
2022-12-05T22:11:05.637Z,96131.66
2022-12-05T22:13:33.476Z,96128.56
2022-12-05T22:16:02.259Z,96125.59
2022-12-05T22:18:30.586Z,96129.50
2022-12-05T22:20:58.552Z,96129.94
2022-12-05T22:23:28.826Z,96131.53
2022-12-05T22:25:58.301Z,96125.75
2022-12-05T22:28:26.075Z,96126.97
2022-12-05T22:30:55.157Z,96138.25
2022-12-05T22:33:22.965Z,96127.28
2022-12-05T22:35:54.057Z,96105.69
2022-12-05T22:38:21.753Z,96125.47
2022-12-05T22:40:55.271Z,96126.28
2022-12-05T22:43:23.889Z,96117.03
2022-12-05T22:45:52.497Z,96126.47
2022-12-05T22:48:20.651Z,96127.84
2022-12-05T22:50:48.883Z,96123.66
2022-12-05T22:53:19.982Z,96124.69
2022-12-05T22:55:47.798Z,96125.03
2022-12-05T22:58:17.333Z,96121.63
2022-12-05T23:00:46.122Z,96127.41
2022-12-05T23:03:15.168Z,96129.66
2022-12-05T23:05:46.379Z,96134.34
2022-12-05T23:08:14.349Z,96126.31
2022-12-05T23:10:42.275Z,96134.13
2022-12-05T23:13:10.440Z,96129.13
2022-12-05T23:15:39.865Z,96093.31
2022-12-05T23:18:08.586Z,96108.47
2022-12-05T23:20:36.467Z,96125.09
2022-12-05T23:23:04.391Z,96106.25
2022-12-05T23:25:32.229Z,96120.47
2022-12-05T23:28:00.217Z,96115.63
2022-12-05T23:30:28.099Z,96117.56
2022-12-05T23:32:57.359Z,96093.88
2022-12-05T23:35:25.306Z,96115.53
2022-12-05T23:37:54.371Z,96110.91
2022-12-05T23:40:22.272Z,96110.56
2022-12-05T23:42:50.157Z,96112.19
2022-12-05T23:45:18.121Z,96080.88
2022-12-05T23:47:46.051Z,96085.31
2022-12-05T23:50:15.505Z,96100.75
2022-12-05T23:52:43.385Z,96079.41
2022-12-05T23:55:11.255Z,96097.13
2022-12-05T23:57:39.186Z,96072.31
